Burns Pinion Ridge Reserve, California Weather observations

Data are for 10 minute period ending at time listed.
 Day   Time   Solar   Ave.   Ave.  Ave.  Vector  Max.   Baro.   Total    
  of    of     Rad.   Air    Rel.  Wind   Wind   Wind  Press.  Precip.   
Year   Day            Temp.  Hum.  Speed  Dir.   Gust                    
2016   (PST)  Kw/m2    F      %     mph   deg.    mph    mb.     in.     
-------------------------------------------------------------------------
 121    6:10   0.18   52.7    48    1.5    51     3.9   866.9    0.00 
 121    6:20   0.21   54.0    47    3.4    59     7.5   866.9    0.00 
 121    6:30   0.25   52.9    49    4.5    37     8.0   866.8    0.00 
 121    6:40   0.28   54.5    35    9.3   315    16.4   866.9    0.00 
 121    6:50   0.33   55.1    31   11.0   324    18.9   867.0    0.00 
 121    7:00   0.36   55.2    31   13.5   315    26.1   867.0    0.00 
 121    7:10   0.40   53.8    42   16.3   329    23.1   867.1    0.00 
 121    7:20   0.41   52.6    45   18.7   326    31.2   867.1    0.00 
 121    7:30   0.54   52.5    45   21.8   322    34.6   867.1    0.00 
 121    7:40   0.34   50.1    54   24.3   320    35.2   867.2    0.00 
 121    7:50   0.15   47.0    65   21.3   324    34.3   867.5    0.00 
 121    8:00   0.12   45.4    69   17.6   329    27.5   867.7    0.00 
 121    8:10   0.13   46.1    65   13.4   347    21.4   867.8    0.00 
 121    8:20   0.17   47.0    64   11.6   334    19.2   867.7    0.00 
 121    8:30   0.18   47.7    62   10.8   328    21.7   867.7    0.00 
 121    8:40   0.18   48.4    59   16.0   324    26.1   867.6    0.00 
 121    8:50   0.25   48.7    58   17.9   323    26.6   867.6    0.00 
 121    9:00   0.31   49.2    59   16.7   322    25.6   867.6    0.00 
 121    9:10   0.42   50.3    56   15.4   319    22.8   867.7    0.00 
 121    9:20   0.47   51.3    54   14.8   314    25.4   867.7    0.00 
 121    9:30   0.44   51.6    54   16.3   321    24.6   867.8    0.00 
 121    9:40   0.75   52.3    52   17.7   318    28.1   867.8    0.00 
 121    9:50   0.82   53.5    50   18.8   321    29.8   867.7    0.00 
 121   10:00   0.98   53.7    52   16.6   317    26.4   867.7    0.00 
 121   10:10   0.75   53.9    54   14.8   322    22.9   867.8    0.00 
 121   10:20   0.75   53.8    50   15.9   320    24.3   867.7    0.00 
 121   10:30   0.95   53.6    49   18.6   327    27.4   867.6    0.00 
 121   10:40   0.99   55.2    46   19.0   320    33.0   867.4    0.00 
 121   10:50   0.77   54.7    48   18.2   329    28.9   867.6    0.00 
 121   11:00   0.70   53.5    51   18.1   318    26.9   867.5    0.00 
 121   11:10   0.36   52.1    54   19.1   333    28.2   867.6    0.00 
 121   11:20   0.56   51.9    55   17.8   336    25.1   867.5    0.00 
 121   11:30   0.57   52.3    56   18.9   327    29.5   867.4    0.00 
 121   11:40   0.71   52.5    56   18.2   335    29.4   867.3    0.00 
 121   11:50   0.84   53.5    52   21.0   340    33.9   867.2    0.00 
 121   12:00   0.74   54.4    50   21.2   327    30.9   867.2    0.00 
 121   12:10   1.03   54.1    51   21.4   329    32.1   867.2    0.00 
 121   12:20   0.93   55.6    47   23.5   332    34.7   867.2    0.00 
 121   12:30   0.65   55.0    48   19.6   327    29.9   867.3    0.00 
 121   12:40   0.39   54.2    50   18.7   325    31.4   867.4    0.00 
 121   12:50   0.55   53.7    51   22.0   333    30.5   867.4    0.00 
 121   13:00   0.25   53.7    50   18.2   336    29.6   867.5    0.00 
 121   13:10   0.27   52.8    53   18.2   327    31.6   867.5    0.00 
 121   13:20   0.33   52.9    56   17.0   340    28.2   867.5    0.00 
 121   13:30   0.19   52.9    58   16.1   355    26.2   867.4    0.00 
 121   13:40   0.16   49.9    73   16.8   351    26.2   867.5    0.00 
 121   13:50   0.17   49.5    74   16.6   339    27.5   867.5    0.00 
 121   14:00   0.29   51.2    64   17.4   336    25.9   867.5    0.00 
 121   14:10   0.48   54.0    56   17.5   327    28.8   867.5    0.00 
 121   14:20   0.18   53.2    56   15.5   340    28.1   867.5    0.00 
 121   14:30   0.32   53.2    55   19.6   336    30.2   867.4    0.00 
 121   14:40   0.25   53.7    54   17.2   339    27.1   867.3    0.00 
 121   14:50   0.22   53.5    54   21.2   339    30.8   867.2    0.00 
 121   15:00   0.31   53.6    54   20.9   340    31.9   867.1    0.00 
 121   15:10   0.29   54.6    52   19.3   338    29.6   867.1    0.00 
 121   15:20   0.25   54.1    53   17.6   333    27.2   867.1    0.00 
 121   15:30   0.24   54.5    52   18.8   340    31.8   867.0    0.00 
 121   15:40   0.34   55.6    50   18.5   345    28.6   867.0    0.00 
 121   15:50   0.32   55.9    50   17.3   337    26.0   867.1    0.00 
 121   16:00   0.39   57.1    47   16.5   344    25.1   867.1    0.00 
 121   16:10   100.00  99999.0   99999  99999.0   99999   99999.0   99999.0   99999.00 
 121   16:20   100.00  99999.0   99999  99999.0   99999   99999.0   99999.0   99999.00 
 121   16:30   100.00  99999.0   99999  99999.0   99999   99999.0   99999.0   99999.00 
 121   16:40   100.00  99999.0   99999  99999.0   99999   99999.0   99999.0   99999.00 
 121   16:50   100.00  99999.0   99999  99999.0   99999   99999.0   99999.0   99999.00 
 121   17:00   100.00  99999.0   99999  99999.0   99999   99999.0   99999.0   99999.00 
 121   17:10   100.00  99999.0   99999  99999.0   99999   99999.0   99999.0   99999.00 
 121   17:20   100.00  99999.0   99999  99999.0   99999   99999.0   99999.0   99999.00 
 121   17:30   100.00  99999.0   99999  99999.0   99999   99999.0   99999.0   99999.00 
 121   17:40   100.00  99999.0   99999  99999.0   99999   99999.0   99999.0   99999.00 
 121   17:50   100.00  99999.0   99999  99999.0   99999   99999.0   99999.0   99999.00 
 121   18:00   100.00  99999.0   99999  99999.0   99999   99999.0   99999.0   99999.00 
 121   18:10   100.00  99999.0   99999  99999.0   99999   99999.0   99999.0   99999.00 
 121   18:20   100.00  99999.0   99999  99999.0   99999   99999.0   99999.0   99999.00 
 121   18:30   100.00  99999.0   99999  99999.0   99999   99999.0   99999.0   99999.00 
 121   18:40   100.00  99999.0   99999  99999.0   99999   99999.0   99999.0   99999.00 
 121   18:50   100.00  99999.0   99999  99999.0   99999   99999.0   99999.0   99999.00 
 121   19:00   100.00  99999.0   99999  99999.0   99999   99999.0   99999.0   99999.00 
 121   19:10   100.00  99999.0   99999  99999.0   99999   99999.0   99999.0   99999.00 
 121   19:20   100.00  99999.0   99999  99999.0   99999   99999.0   99999.0   99999.00 
 121   19:30   100.00  99999.0   99999  99999.0   99999   99999.0   99999.0   99999.00 
 121   19:40   100.00  99999.0   99999  99999.0   99999   99999.0   99999.0   99999.00 
 121   19:50   100.00  99999.0   99999  99999.0   99999   99999.0   99999.0   99999.00 
 121   20:00   100.00  99999.0   99999  99999.0   99999   99999.0   99999.0   99999.00 
 121   20:10   0.00   53.2    56   13.9   341    20.9   869.1    0.00 
 121   20:20   0.00   52.8    57   13.2   341    19.7   869.2    0.00 
 121   20:30   0.00   52.6    57   13.4   343    19.7   869.3    0.00 
 121   20:40   0.00   52.7    56   14.2   340    18.9   869.3    0.00 
 121   20:50   0.00   52.9    56   14.1   343    21.6   869.3    0.00 
 121   21:00   0.00   53.2    55   14.2   343    21.0   869.3    0.00 
 121   21:10   0.00   53.1    55   13.3   342    22.6   869.4    0.00 
 121   21:20   0.00   53.3    54   15.7   341    21.6   869.4    0.00 
 121   21:30   0.00   53.3    54   15.3   341    24.8   869.4    0.00 
 121   21:40   0.00   53.1    55   14.2   342    20.9   869.5    0.00 
 121   21:50   0.00   53.3    54   14.6   345    22.4   869.5    0.00 
 121   22:00   0.00   53.3    54   12.6   345    19.6   869.6    0.00 
 121   22:10   0.00   53.3    54   11.8   342    18.3   869.6    0.00 
 121   22:20   0.00   53.5    54   11.4   343    19.6   869.6    0.00 
 121   22:30   0.00   53.3    54   10.7   345    17.1   869.6    0.00 
 121   22:40   0.00   52.9    55    9.7   347    13.6   869.6    0.00 
 121   22:50   0.00   52.7    56   11.6   343    17.0   869.6    0.00 
 121   23:00   0.00   52.9    55   12.0   344    18.2   869.6    0.00 
 121   23:10   0.00   52.8    56   12.2   344    19.3   869.6    0.00 
 121   23:20   0.00   52.6    56   12.6   344    18.2   869.6    0.00 
 121   23:30   0.00   52.5    56   13.2   341    18.3   869.6    0.00 
 121   23:40   0.00   52.4    56   12.4   343    18.1   869.6    0.00 
 121   23:50   0.00   52.3    56   13.2   342    17.7   869.7    0.00 
 122    0:00   0.00   52.4    56   11.6   344    19.2   869.7    0.00 
 122    0:10   0.00   52.4    56   11.8   344    18.4   869.8    0.00 
 122    0:20   0.00   52.5    55   11.8   347    20.6   869.8    0.00 
 122    0:30   0.00   52.6    55   12.4   343    18.1   869.7    0.00 
 122    0:40   0.00   52.3    55   12.1   338    20.8   869.6    0.00 
 122    0:50   0.00   52.4    55   12.4   343    18.6   869.6    0.00 
 122    1:00   0.00   52.4    55   11.6   346    18.3   869.7    0.00 
 122    1:10   0.00   52.7    54   11.4   354    19.5   869.6    0.00 
 122    1:20   0.00   52.7    54   11.6   357    17.2   869.6    0.00 
 122    1:30   0.00   52.6    54   12.0   349    19.8   869.5    0.00 
 122    1:40   0.00   52.7    54   13.1   343    17.4   869.5    0.00 
 122    1:50   0.00   52.5    54   11.8   353    18.6   869.5    0.00 
 122    2:00   0.00   52.4    55   12.5   352    18.1   869.5    0.00 
 122    2:10   0.00   52.3    55   12.8   353    20.2   869.6    0.00 
 122    2:20   0.00   52.2    55   11.8   352    18.0   869.7    0.00 
 122    2:30   0.00   52.3    56   11.8   350    18.3   869.7    0.00 
 122    2:40   0.00   52.2    56   12.2   351    19.9   869.8    0.00 
 122    2:50   0.00   52.1    56   10.5   354    15.9   869.9    0.00 
 122    3:00   0.00   52.2    56   12.9   351    19.4   869.8    0.00 
 122    3:10   0.00   52.7    55   12.4   351    19.8   869.9    0.00 
 122    3:20   0.00   52.5    56    9.5   347    13.7   870.0    0.00 
 122    3:30   0.00   52.3    56    9.4   348    14.5   870.0    0.00 
 122    3:40   0.00   52.2    56   10.3   348    16.9   869.9    0.00 
 122    3:50   0.00   52.3    56   11.3   346    20.0   869.9    0.00 
 122    4:00   0.00   52.1    56   10.2   346    15.6   870.0    0.00 
 122    4:10   0.00   52.1    57   11.2   356    18.6   870.0    0.00 
 122    4:20   0.00   51.9    57   10.9   352    16.8   870.1    0.00 
 122    4:30   0.00   51.6    57    9.2   350    14.5   870.2    0.00 
 122    4:40   0.00   51.8    57    9.3   341    14.5   870.3    0.00 
 122    4:50   0.00   52.1    56    8.6   349    14.2   870.4    0.00 
 122    5:00   0.00   52.7    55    9.7   349    15.3   870.6    0.00 
 122    5:10   0.02   53.0    54    9.6   349    17.0   870.6    0.00 
 122    5:20   0.02   53.1    54   10.4   351    16.0   870.8    0.00 
 122    5:30   0.03   53.0    54   12.6   348    20.8   870.9    0.00 
 122    5:40   0.04   53.0    54   11.4   351    18.8   871.0    0.00 
 122    5:50   0.11   54.2    52   11.8   359    16.1   871.1    0.00 
 122    6:00   0.14   54.9    50   12.7   359    19.6   871.2    0.00 

Return to Burns Pinion Ridge Reserve graphs page.


Western Regional Climate Center,wrcc@dri.edu